sensor_id;sensor_type;location;lat;lon;timestamp;P1;durP1;ratioP1;P2;durP2;ratioP2
53646;SDS011;39550;52.230;5.194;2024-01-30T00:01:16;15.50;;;10.00;;
53646;SDS011;39550;52.230;5.194;2024-01-30T00:03:41;15.23;;;9.00;;
53646;SDS011;39550;52.230;5.194;2024-01-30T00:06:07;16.88;;;10.88;;
53646;SDS011;39550;52.230;5.194;2024-01-30T00:08:33;15.07;;;10.27;;
53646;SDS011;39550;52.230;5.194;2024-01-30T00:10:58;15.43;;;9.40;;
53646;SDS011;39550;52.230;5.194;2024-01-30T00:13:24;18.35;;;9.75;;
53646;SDS011;39550;52.230;5.194;2024-01-30T00:15:49;15.75;;;10.13;;
53646;SDS011;39550;52.230;5.194;2024-01-30T00:18:14;15.45;;;10.07;;
53646;SDS011;39550;52.230;5.194;2024-01-30T00:20:40;15.25;;;10.30;;
53646;SDS011;39550;52.230;5.194;2024-01-30T00:23:05;15.57;;;9.18;;
53646;SDS011;39550;52.230;5.194;2024-01-30T00:25:31;14.70;;;9.43;;
53646;SDS011;39550;52.230;5.194;2024-01-30T00:27:58;16.05;;;9.48;;
53646;SDS011;39550;52.230;5.194;2024-01-30T00:30:23;15.55;;;9.25;;
53646;SDS011;39550;52.230;5.194;2024-01-30T00:32:49;15.63;;;9.68;;
53646;SDS011;39550;52.230;5.194;2024-01-30T00:35:14;14.13;;;9.23;;
53646;SDS011;39550;52.230;5.194;2024-01-30T00:37:39;14.98;;;9.55;;
53646;SDS011;39550;52.230;5.194;2024-01-30T00:40:05;14.15;;;9.05;;
53646;SDS011;39550;52.230;5.194;2024-01-30T00:42:31;18.45;;;10.57;;
53646;SDS011;39550;52.230;5.194;2024-01-30T00:44:57;13.02;;;8.63;;
53646;SDS011;39550;52.230;5.194;2024-01-30T00:47:22;15.13;;;8.82;;
53646;SDS011;39550;52.230;5.194;2024-01-30T00:49:47;16.42;;;9.30;;
53646;SDS011;39550;52.230;5.194;2024-01-30T00:52:13;13.77;;;9.40;;
53646;SDS011;39550;52.230;5.194;2024-01-30T00:54:38;16.65;;;10.23;;
53646;SDS011;39550;52.230;5.194;2024-01-30T00:57:03;14.65;;;9.40;;
53646;SDS011;39550;52.230;5.194;2024-01-30T00:59:29;15.73;;;10.32;;
53646;SDS011;39550;52.230;5.194;2024-01-30T01:01:54;14.20;;;9.60;;
53646;SDS011;39550;52.230;5.194;2024-01-30T01:04:19;13.75;;;8.73;;
53646;SDS011;39550;52.230;5.194;2024-01-30T01:06:46;15.80;;;10.10;;
53646;SDS011;39550;52.230;5.194;2024-01-30T01:09:12;13.50;;;9.52;;
53646;SDS011;39550;52.230;5.194;2024-01-30T01:11:37;13.52;;;8.68;;
53646;SDS011;39550;52.230;5.194;2024-01-30T01:14:03;14.90;;;8.82;;
53646;SDS011;39550;52.230;5.194;2024-01-30T01:16:29;12.30;;;8.38;;
53646;SDS011;39550;52.230;5.194;2024-01-30T01:18:55;14.02;;;8.73;;
53646;SDS011;39550;52.230;5.194;2024-01-30T01:21:20;12.30;;;7.97;;
53646;SDS011;39550;52.230;5.194;2024-01-30T01:23:45;14.15;;;9.65;;
53646;SDS011;39550;52.230;5.194;2024-01-30T01:26:11;14.63;;;8.57;;
53646;SDS011;39550;52.230;5.194;2024-01-30T01:28:36;12.60;;;8.68;;
53646;SDS011;39550;52.230;5.194;2024-01-30T01:31:01;13.27;;;9.23;;
53646;SDS011;39550;52.230;5.194;2024-01-30T01:33:31;13.05;;;8.80;;
53646;SDS011;39550;52.230;5.194;2024-01-30T01:35:57;14.52;;;9.38;;
53646;SDS011;39550;52.230;5.194;2024-01-30T01:38:23;13.02;;;8.23;;
53646;SDS011;39550;52.230;5.194;2024-01-30T01:40:48;12.80;;;8.57;;
53646;SDS011;39550;52.230;5.194;2024-01-30T01:43:14;14.75;;;9.02;;
53646;SDS011;39550;52.230;5.194;2024-01-30T01:45:39;13.98;;;8.82;;
53646;SDS011;39550;52.230;5.194;2024-01-30T01:48:04;12.57;;;8.93;;
53646;SDS011;39550;52.230;5.194;2024-01-30T01:50:30;12.63;;;8.63;;
53646;SDS011;39550;52.230;5.194;2024-01-30T01:52:55;13.95;;;8.90;;
53646;SDS011;39550;52.230;5.194;2024-01-30T01:55:21;13.63;;;8.82;;
53646;SDS011;39550;52.230;5.194;2024-01-30T01:57:49;13.20;;;9.20;;
53646;SDS011;39550;52.230;5.194;2024-01-30T02:00:15;13.65;;;9.25;;
53646;SDS011;39550;52.230;5.194;2024-01-30T02:02:41;12.35;;;8.43;;
53646;SDS011;39550;52.230;5.194;2024-01-30T02:05:08;14.98;;;9.65;;
53646;SDS011;39550;52.230;5.194;2024-01-30T02:07:34;14.02;;;8.68;;
53646;SDS011;39550;52.230;5.194;2024-01-30T02:09:59;15.32;;;9.32;;
53646;SDS011;39550;52.230;5.194;2024-01-30T02:12:25;13.13;;;9.23;;
53646;SDS011;39550;52.230;5.194;2024-01-30T02:14:50;12.57;;;8.73;;
53646;SDS011;39550;52.230;5.194;2024-01-30T02:17:16;12.90;;;8.65;;
53646;SDS011;39550;52.230;5.194;2024-01-30T02:19:41;13.93;;;8.82;;
53646;SDS011;39550;52.230;5.194;2024-01-30T02:22:06;15.82;;;8.18;;
53646;SDS011;39550;52.230;5.194;2024-01-30T02:24:32;12.30;;;9.00;;
53646;SDS011;39550;52.230;5.194;2024-01-30T02:26:58;14.10;;;8.50;;
53646;SDS011;39550;52.230;5.194;2024-01-30T02:29:23;12.50;;;7.90;;
53646;SDS011;39550;52.230;5.194;2024-01-30T02:31:49;13.23;;;9.02;;
53646;SDS011;39550;52.230;5.194;2024-01-30T02:34:14;10.80;;;7.75;;
53646;SDS011;39550;52.230;5.194;2024-01-30T02:36:43;13.70;;;8.20;;
53646;SDS011;39550;52.230;5.194;2024-01-30T02:39:09;12.23;;;8.20;;
53646;SDS011;39550;52.230;5.194;2024-01-30T02:41:34;12.82;;;8.15;;
53646;SDS011;39550;52.230;5.194;2024-01-30T02:44:00;12.70;;;8.50;;
53646;SDS011;39550;52.230;5.194;2024-01-30T02:46:26;14.95;;;8.80;;
53646;SDS011;39550;52.230;5.194;2024-01-30T02:48:51;11.82;;;7.72;;
53646;SDS011;39550;52.230;5.194;2024-01-30T02:51:16;12.70;;;7.93;;
53646;SDS011;39550;52.230;5.194;2024-01-30T02:53:42;13.75;;;8.70;;
53646;SDS011;39550;52.230;5.194;2024-01-30T02:56:07;13.27;;;7.90;;
53646;SDS011;39550;52.230;5.194;2024-01-30T02:58:35;11.55;;;7.70;;
53646;SDS011;39550;52.230;5.194;2024-01-30T03:01:01;12.00;;;8.15;;
53646;SDS011;39550;52.230;5.194;2024-01-30T03:03:26;11.02;;;7.32;;
53646;SDS011;39550;52.230;5.194;2024-01-30T03:05:51;10.80;;;7.20;;
53646;SDS011;39550;52.230;5.194;2024-01-30T03:08:17;10.15;;;7.53;;
53646;SDS011;39550;52.230;5.194;2024-01-30T03:10:42;12.65;;;8.45;;
53646;SDS011;39550;52.230;5.194;2024-01-30T03:13:07;11.07;;;7.88;;
53646;SDS011;39550;52.230;5.194;2024-01-30T03:15:33;12.23;;;8.45;;
53646;SDS011;39550;52.230;5.194;2024-01-30T03:17:58;13.88;;;8.05;;
53646;SDS011;39550;52.230;5.194;2024-01-30T03:20:23;12.88;;;8.07;;
53646;SDS011;39550;52.230;5.194;2024-01-30T03:22:49;12.50;;;7.78;;
53646;SDS011;39550;52.230;5.194;2024-01-30T03:25:14;14.85;;;8.55;;
53646;SDS011;39550;52.230;5.194;2024-01-30T03:27:40;11.98;;;7.90;;
53646;SDS011;39550;52.230;5.194;2024-01-30T03:30:05;11.93;;;7.97;;
53646;SDS011;39550;52.230;5.194;2024-01-30T03:32:31;11.35;;;7.78;;
53646;SDS011;39550;52.230;5.194;2024-01-30T03:34:56;10.80;;;7.45;;
53646;SDS011;39550;52.230;5.194;2024-01-30T03:37:23;15.00;;;8.07;;
53646;SDS011;39550;52.230;5.194;2024-01-30T03:39:48;11.05;;;7.20;;
53646;SDS011;39550;52.230;5.194;2024-01-30T03:42:13;11.68;;;7.80;;
53646;SDS011;39550;52.230;5.194;2024-01-30T03:44:39;12.07;;;7.30;;
53646;SDS011;39550;52.230;5.194;2024-01-30T03:47:04;13.60;;;7.95;;
53646;SDS011;39550;52.230;5.194;2024-01-30T03:49:29;10.90;;;6.95;;
53646;SDS011;39550;52.230;5.194;2024-01-30T03:51:55;14.65;;;7.88;;
53646;SDS011;39550;52.230;5.194;2024-01-30T03:54:20;10.68;;;7.60;;
53646;SDS011;39550;52.230;5.194;2024-01-30T03:56:45;12.02;;;7.38;;
53646;SDS011;39550;52.230;5.194;2024-01-30T03:59:11;11.43;;;7.47;;
53646;SDS011;39550;52.230;5.194;2024-01-30T04:01:36;10.40;;;7.18;;
53646;SDS011;39550;52.230;5.194;2024-01-30T04:04:01;10.32;;;6.95;;
53646;SDS011;39550;52.230;5.194;2024-01-30T04:06:27;11.68;;;7.50;;
53646;SDS011;39550;52.230;5.194;2024-01-30T04:08:52;11.82;;;7.45;;
53646;SDS011;39550;52.230;5.194;2024-01-30T04:11:20;11.95;;;7.60;;
53646;SDS011;39550;52.230;5.194;2024-01-30T04:13:45;12.30;;;7.68;;
53646;SDS011;39550;52.230;5.194;2024-01-30T04:16:22;11.07;;;7.25;;
53646;SDS011;39550;52.230;5.194;2024-01-30T04:18:49;12.95;;;7.78;;
53646;SDS011;39550;52.230;5.194;2024-01-30T04:21:16;10.85;;;7.15;;
53646;SDS011;39550;52.230;5.194;2024-01-30T04:23:41;11.00;;;7.70;;
53646;SDS011;39550;52.230;5.194;2024-01-30T04:26:07;10.80;;;7.82;;
53646;SDS011;39550;52.230;5.194;2024-01-30T04:28:32;12.82;;;7.70;;
53646;SDS011;39550;52.230;5.194;2024-01-30T04:30:57;10.52;;;7.07;;
53646;SDS011;39550;52.230;5.194;2024-01-30T04:33:22;12.60;;;7.75;;
53646;SDS011;39550;52.230;5.194;2024-01-30T04:35:48;13.55;;;8.10;;
53646;SDS011;39550;52.230;5.194;2024-01-30T04:38:13;10.45;;;7.18;;
53646;SDS011;39550;52.230;5.194;2024-01-30T04:40:39;12.60;;;8.13;;
53646;SDS011;39550;52.230;5.194;2024-01-30T04:43:05;11.68;;;7.32;;
53646;SDS011;39550;52.230;5.194;2024-01-30T04:45:30;11.77;;;7.72;;
53646;SDS011;39550;52.230;5.194;2024-01-30T04:47:55;11.18;;;7.13;;
53646;SDS011;39550;52.230;5.194;2024-01-30T04:50:21;13.25;;;8.00;;
53646;SDS011;39550;52.230;5.194;2024-01-30T04:52:46;11.90;;;7.53;;
53646;SDS011;39550;52.230;5.194;2024-01-30T04:55:11;11.32;;;7.53;;
53646;SDS011;39550;52.230;5.194;2024-01-30T04:57:37;14.07;;;8.15;;
53646;SDS011;39550;52.230;5.194;2024-01-30T05:00:03;12.45;;;7.90;;
53646;SDS011;39550;52.230;5.194;2024-01-30T05:02:28;12.25;;;7.93;;
53646;SDS011;39550;52.230;5.194;2024-01-30T05:04:54;12.27;;;7.22;;
53646;SDS011;39550;52.230;5.194;2024-01-30T05:07:19;11.18;;;7.57;;
53646;SDS011;39550;52.230;5.194;2024-01-30T05:09:46;12.27;;;7.43;;
53646;SDS011;39550;52.230;5.194;2024-01-30T05:12:11;12.35;;;8.35;;
53646;SDS011;39550;52.230;5.194;2024-01-30T05:14:37;11.05;;;7.60;;
53646;SDS011;39550;52.230;5.194;2024-01-30T05:17:03;11.35;;;7.57;;
53646;SDS011;39550;52.230;5.194;2024-01-30T05:19:28;10.75;;;6.85;;
53646;SDS011;39550;52.230;5.194;2024-01-30T05:21:55;11.52;;;7.70;;
53646;SDS011;39550;52.230;5.194;2024-01-30T05:24:20;10.82;;;7.78;;
53646;SDS011;39550;52.230;5.194;2024-01-30T05:26:46;11.60;;;7.45;;
53646;SDS011;39550;52.230;5.194;2024-01-30T05:29:13;12.10;;;7.40;;
53646;SDS011;39550;52.230;5.194;2024-01-30T05:31:38;11.52;;;7.32;;
53646;SDS011;39550;52.230;5.194;2024-01-30T05:34:04;10.63;;;7.18;;
53646;SDS011;39550;52.230;5.194;2024-01-30T05:36:29;12.57;;;7.43;;
53646;SDS011;39550;52.230;5.194;2024-01-30T05:38:55;12.38;;;8.00;;
53646;SDS011;39550;52.230;5.194;2024-01-30T05:41:22;10.70;;;7.63;;
53646;SDS011;39550;52.230;5.194;2024-01-30T05:43:47;12.35;;;7.43;;
53646;SDS011;39550;52.230;5.194;2024-01-30T05:46:13;11.68;;;7.28;;
53646;SDS011;39550;52.230;5.194;2024-01-30T05:48:38;11.25;;;7.47;;
53646;SDS011;39550;52.230;5.194;2024-01-30T05:51:04;12.95;;;7.97;;
53646;SDS011;39550;52.230;5.194;2024-01-30T05:53:33;10.55;;;6.57;;
53646;SDS011;39550;52.230;5.194;2024-01-30T05:56:01;12.75;;;7.63;;
53646;SDS011;39550;52.230;5.194;2024-01-30T05:58:27;12.13;;;7.15;;
53646;SDS011;39550;52.230;5.194;2024-01-30T06:00:52;12.27;;;7.30;;
53646;SDS011;39550;52.230;5.194;2024-01-30T06:03:17;12.32;;;8.43;;
53646;SDS011;39550;52.230;5.194;2024-01-30T06:05:43;13.35;;;7.78;;
53646;SDS011;39550;52.230;5.194;2024-01-30T06:08:08;15.35;;;8.57;;
53646;SDS011;39550;52.230;5.194;2024-01-30T06:10:33;11.52;;;7.82;;
53646;SDS011;39550;52.230;5.194;2024-01-30T06:12:59;12.73;;;8.00;;
53646;SDS011;39550;52.230;5.194;2024-01-30T06:15:25;12.90;;;7.68;;
53646;SDS011;39550;52.230;5.194;2024-01-30T06:17:50;9.63;;;6.82;;
53646;SDS011;39550;52.230;5.194;2024-01-30T06:20:16;12.70;;;7.25;;
53646;SDS011;39550;52.230;5.194;2024-01-30T06:22:41;11.75;;;7.57;;
53646;SDS011;39550;52.230;5.194;2024-01-30T06:25:07;11.68;;;7.45;;
53646;SDS011;39550;52.230;5.194;2024-01-30T06:27:32;13.32;;;7.45;;
53646;SDS011;39550;52.230;5.194;2024-01-30T06:29:58;12.10;;;7.78;;
53646;SDS011;39550;52.230;5.194;2024-01-30T06:32:23;11.82;;;6.88;;
53646;SDS011;39550;52.230;5.194;2024-01-30T06:34:50;12.75;;;8.05;;
53646;SDS011;39550;52.230;5.194;2024-01-30T06:37:15;12.50;;;7.68;;
53646;SDS011;39550;52.230;5.194;2024-01-30T06:39:40;11.35;;;7.53;;
53646;SDS011;39550;52.230;5.194;2024-01-30T06:42:06;11.40;;;7.75;;
53646;SDS011;39550;52.230;5.194;2024-01-30T06:44:31;11.50;;;7.00;;
53646;SDS011;39550;52.230;5.194;2024-01-30T06:46:57;12.32;;;7.55;;
53646;SDS011;39550;52.230;5.194;2024-01-30T06:49:23;10.90;;;7.22;;
53646;SDS011;39550;52.230;5.194;2024-01-30T06:51:49;10.52;;;7.13;;
53646;SDS011;39550;52.230;5.194;2024-01-30T06:54:14;11.70;;;7.70;;
53646;SDS011;39550;52.230;5.194;2024-01-30T06:56:39;12.35;;;7.28;;
53646;SDS011;39550;52.230;5.194;2024-01-30T06:59:05;10.80;;;7.10;;
53646;SDS011;39550;52.230;5.194;2024-01-30T07:01:31;11.82;;;7.30;;
53646;SDS011;39550;52.230;5.194;2024-01-30T07:03:57;13.20;;;8.07;;
53646;SDS011;39550;52.230;5.194;2024-01-30T07:06:23;12.00;;;7.72;;
53646;SDS011;39550;52.230;5.194;2024-01-30T07:08:49;12.23;;;8.52;;
53646;SDS011;39550;52.230;5.194;2024-01-30T07:11:18;12.73;;;7.90;;
53646;SDS011;39550;52.230;5.194;2024-01-30T07:13:45;13.02;;;7.65;;
53646;SDS011;39550;52.230;5.194;2024-01-30T07:16:10;16.10;;;8.20;;
53646;SDS011;39550;52.230;5.194;2024-01-30T07:18:35;15.45;;;7.82;;
53646;SDS011;39550;52.230;5.194;2024-01-30T07:21:01;14.98;;;8.50;;
53646;SDS011;39550;52.230;5.194;2024-01-30T07:23:26;12.77;;;7.68;;
53646;SDS011;39550;52.230;5.194;2024-01-30T07:25:51;14.50;;;8.00;;
53646;SDS011;39550;52.230;5.194;2024-01-30T07:28:17;16.52;;;8.70;;
53646;SDS011;39550;52.230;5.194;2024-01-30T07:30:42;15.35;;;9.02;;
53646;SDS011;39550;52.230;5.194;2024-01-30T07:33:08;14.07;;;8.30;;
53646;SDS011;39550;52.230;5.194;2024-01-30T07:35:33;14.10;;;8.45;;
53646;SDS011;39550;52.230;5.194;2024-01-30T07:37:59;13.43;;;7.75;;
53646;SDS011;39550;52.230;5.194;2024-01-30T07:40:25;13.38;;;7.65;;
53646;SDS011;39550;52.230;5.194;2024-01-30T07:42:50;13.57;;;7.70;;
53646;SDS011;39550;52.230;5.194;2024-01-30T07:45:15;13.48;;;7.78;;
53646;SDS011;39550;52.230;5.194;2024-01-30T07:47:41;15.30;;;9.38;;
53646;SDS011;39550;52.230;5.194;2024-01-30T07:50:07;12.43;;;7.75;;
53646;SDS011;39550;52.230;5.194;2024-01-30T07:52:33;13.45;;;8.32;;
53646;SDS011;39550;52.230;5.194;2024-01-30T07:54:58;13.95;;;8.93;;
53646;SDS011;39550;52.230;5.194;2024-01-30T07:57:23;13.27;;;8.00;;
53646;SDS011;39550;52.230;5.194;2024-01-30T07:59:49;12.82;;;7.55;;
53646;SDS011;39550;52.230;5.194;2024-01-30T08:02:15;12.65;;;7.72;;
53646;SDS011;39550;52.230;5.194;2024-01-30T08:04:40;15.13;;;7.65;;
53646;SDS011;39550;52.230;5.194;2024-01-30T08:07:05;11.85;;;7.32;;
53646;SDS011;39550;52.230;5.194;2024-01-30T08:09:31;12.95;;;7.60;;
53646;SDS011;39550;52.230;5.194;2024-01-30T08:11:56;11.63;;;7.68;;
53646;SDS011;39550;52.230;5.194;2024-01-30T08:14:22;14.82;;;9.32;;
53646;SDS011;39550;52.230;5.194;2024-01-30T08:16:47;13.80;;;8.50;;
53646;SDS011;39550;52.230;5.194;2024-01-30T08:19:14;13.32;;;7.30;;
53646;SDS011;39550;52.230;5.194;2024-01-30T08:21:39;13.07;;;7.90;;
53646;SDS011;39550;52.230;5.194;2024-01-30T08:24:05;14.73;;;8.15;;
53646;SDS011;39550;52.230;5.194;2024-01-30T08:26:33;13.00;;;7.80;;
53646;SDS011;39550;52.230;5.194;2024-01-30T08:29:00;10.77;;;6.97;;
53646;SDS011;39550;52.230;5.194;2024-01-30T08:31:26;11.32;;;7.57;;
53646;SDS011;39550;52.230;5.194;2024-01-30T08:33:52;13.52;;;8.00;;
53646;SDS011;39550;52.230;5.194;2024-01-30T08:36:17;12.05;;;7.78;;
53646;SDS011;39550;52.230;5.194;2024-01-30T08:38:43;13.52;;;7.78;;
53646;SDS011;39550;52.230;5.194;2024-01-30T08:41:09;15.77;;;7.97;;
53646;SDS011;39550;52.230;5.194;2024-01-30T08:43:34;13.15;;;7.75;;
53646;SDS011;39550;52.230;5.194;2024-01-30T08:46:01;13.63;;;8.23;;
53646;SDS011;39550;52.230;5.194;2024-01-30T08:48:26;14.45;;;8.27;;
53646;SDS011;39550;52.230;5.194;2024-01-30T08:50:52;14.13;;;7.70;;
53646;SDS011;39550;52.230;5.194;2024-01-30T08:53:17;15.15;;;7.88;;
53646;SDS011;39550;52.230;5.194;2024-01-30T08:55:43;13.20;;;7.50;;
53646;SDS011;39550;52.230;5.194;2024-01-30T08:58:08;14.38;;;7.97;;
53646;SDS011;39550;52.230;5.194;2024-01-30T09:00:34;12.45;;;7.38;;
53646;SDS011;39550;52.230;5.194;2024-01-30T09:02:59;12.48;;;7.10;;
53646;SDS011;39550;52.230;5.194;2024-01-30T09:05:24;13.20;;;7.88;;
53646;SDS011;39550;52.230;5.194;2024-01-30T09:07:50;12.57;;;7.45;;
53646;SDS011;39550;52.230;5.194;2024-01-30T09:10:15;12.45;;;6.75;;
53646;SDS011;39550;52.230;5.194;2024-01-30T09:12:41;12.07;;;7.22;;
53646;SDS011;39550;52.230;5.194;2024-01-30T09:15:06;12.07;;;7.38;;
53646;SDS011;39550;52.230;5.194;2024-01-30T09:17:32;12.55;;;7.70;;
53646;SDS011;39550;52.230;5.194;2024-01-30T09:19:58;13.23;;;7.82;;
53646;SDS011;39550;52.230;5.194;2024-01-30T09:22:23;12.85;;;8.05;;
53646;SDS011;39550;52.230;5.194;2024-01-30T09:24:49;13.15;;;7.85;;
53646;SDS011;39550;52.230;5.194;2024-01-30T09:27:14;11.52;;;7.68;;
53646;SDS011;39550;52.230;5.194;2024-01-30T09:29:39;14.98;;;7.13;;
53646;SDS011;39550;52.230;5.194;2024-01-30T09:32:05;15.80;;;8.55;;
53646;SDS011;39550;52.230;5.194;2024-01-30T09:34:31;12.38;;;7.28;;
53646;SDS011;39550;52.230;5.194;2024-01-30T09:36:58;14.07;;;8.27;;
53646;SDS011;39550;52.230;5.194;2024-01-30T09:39:24;13.15;;;8.45;;
53646;SDS011;39550;52.230;5.194;2024-01-30T09:41:51;11.63;;;7.30;;
53646;SDS011;39550;52.230;5.194;2024-01-30T09:47:11;13.13;;;7.53;;
53646;SDS011;39550;52.230;5.194;2024-01-30T09:49:36;12.57;;;7.53;;
53646;SDS011;39550;52.230;5.194;2024-01-30T09:52:03;12.40;;;7.45;;
53646;SDS011;39550;52.230;5.194;2024-01-30T09:54:30;11.02;;;7.68;;
53646;SDS011;39550;52.230;5.194;2024-01-30T09:56:56;12.68;;;7.70;;
53646;SDS011;39550;52.230;5.194;2024-01-30T09:59:22;11.50;;;6.82;;
53646;SDS011;39550;52.230;5.194;2024-01-30T10:01:48;12.77;;;7.97;;
53646;SDS011;39550;52.230;5.194;2024-01-30T10:04:15;12.77;;;7.70;;
53646;SDS011;39550;52.230;5.194;2024-01-30T10:06:40;15.52;;;7.40;;
53646;SDS011;39550;52.230;5.194;2024-01-30T10:09:06;13.60;;;8.45;;
53646;SDS011;39550;52.230;5.194;2024-01-30T10:11:32;14.82;;;7.68;;
53646;SDS011;39550;52.230;5.194;2024-01-30T10:13:57;12.35;;;7.00;;
53646;SDS011;39550;52.230;5.194;2024-01-30T10:16:22;12.18;;;7.32;;
53646;SDS011;39550;52.230;5.194;2024-01-30T10:18:48;16.00;;;7.85;;
53646;SDS011;39550;52.230;5.194;2024-01-30T10:21:14;13.02;;;7.90;;
53646;SDS011;39550;52.230;5.194;2024-01-30T10:23:39;13.85;;;8.18;;
53646;SDS011;39550;52.230;5.194;2024-01-30T10:26:04;12.07;;;7.97;;
53646;SDS011;39550;52.230;5.194;2024-01-30T10:28:32;11.50;;;7.18;;
53646;SDS011;39550;52.230;5.194;2024-01-30T10:30:58;13.07;;;8.25;;
53646;SDS011;39550;52.230;5.194;2024-01-30T10:33:24;14.60;;;7.35;;
53646;SDS011;39550;52.230;5.194;2024-01-30T10:35:50;14.85;;;8.60;;
53646;SDS011;39550;52.230;5.194;2024-01-30T10:38:16;13.02;;;8.68;;
53646;SDS011;39550;52.230;5.194;2024-01-30T10:40:44;12.65;;;8.00;;
53646;SDS011;39550;52.230;5.194;2024-01-30T10:43:11;14.20;;;7.82;;
53646;SDS011;39550;52.230;5.194;2024-01-30T10:45:40;13.07;;;7.57;;
53646;SDS011;39550;52.230;5.194;2024-01-30T10:48:12;15.63;;;8.82;;
53646;SDS011;39550;52.230;5.194;2024-01-30T10:50:38;14.68;;;8.20;;
53646;SDS011;39550;52.230;5.194;2024-01-30T10:53:05;13.23;;;8.70;;
53646;SDS011;39550;52.230;5.194;2024-01-30T10:55:33;14.02;;;8.75;;
53646;SDS011;39550;52.230;5.194;2024-01-30T10:57:59;14.30;;;7.90;;
53646;SDS011;39550;52.230;5.194;2024-01-30T11:00:25;13.52;;;8.15;;
53646;SDS011;39550;52.230;5.194;2024-01-30T11:02:51;13.45;;;8.30;;
53646;SDS011;39550;52.230;5.194;2024-01-30T11:05:23;15.07;;;7.90;;
53646;SDS011;39550;52.230;5.194;2024-01-30T11:07:52;13.95;;;7.70;;
53646;SDS011;39550;52.230;5.194;2024-01-30T11:10:17;12.25;;;7.88;;
53646;SDS011;39550;52.230;5.194;2024-01-30T11:12:43;14.85;;;7.82;;
53646;SDS011;39550;52.230;5.194;2024-01-30T11:15:15;16.88;;;7.50;;
53646;SDS011;39550;52.230;5.194;2024-01-30T11:20:16;14.07;;;7.85;;
53646;SDS011;39550;52.230;5.194;2024-01-30T11:22:46;14.25;;;7.43;;
53646;SDS011;39550;52.230;5.194;2024-01-30T11:25:13;12.55;;;7.35;;
53646;SDS011;39550;52.230;5.194;2024-01-30T11:27:39;13.65;;;7.15;;
53646;SDS011;39550;52.230;5.194;2024-01-30T11:30:06;12.73;;;7.32;;
53646;SDS011;39550;52.230;5.194;2024-01-30T11:32:32;12.75;;;6.75;;
53646;SDS011;39550;52.230;5.194;2024-01-30T11:34:58;12.30;;;6.80;;
53646;SDS011;39550;52.230;5.194;2024-01-30T11:37:25;10.68;;;6.47;;
53646;SDS011;39550;52.230;5.194;2024-01-30T11:39:51;12.27;;;7.05;;
53646;SDS011;39550;52.230;5.194;2024-01-30T11:42:19;9.63;;;5.90;;
53646;SDS011;39550;52.230;5.194;2024-01-30T11:44:48;10.35;;;6.53;;
53646;SDS011;39550;52.230;5.194;2024-01-30T11:47:14;10.07;;;6.07;;
53646;SDS011;39550;52.230;5.194;2024-01-30T11:49:39;10.45;;;6.45;;
53646;SDS011;39550;52.230;5.194;2024-01-30T11:52:05;9.30;;;6.75;;
53646;SDS011;39550;52.230;5.194;2024-01-30T11:54:30;10.60;;;6.22;;
53646;SDS011;39550;52.230;5.194;2024-01-30T11:56:55;13.27;;;6.35;;
53646;SDS011;39550;52.230;5.194;2024-01-30T11:59:21;10.98;;;5.95;;
53646;SDS011;39550;52.230;5.194;2024-01-30T12:04:16;11.80;;;6.50;;
53646;SDS011;39550;52.230;5.194;2024-01-30T12:06:42;10.63;;;6.15;;
53646;SDS011;39550;52.230;5.194;2024-01-30T12:09:08;10.73;;;5.47;;
53646;SDS011;39550;52.230;5.194;2024-01-30T12:11:48;10.82;;;6.10;;
53646;SDS011;39550;52.230;5.194;2024-01-30T12:14:15;10.38;;;5.15;;
53646;SDS011;39550;52.230;5.194;2024-01-30T12:16:41;9.27;;;5.07;;
53646;SDS011;39550;52.230;5.194;2024-01-30T12:19:07;9.13;;;5.43;;
53646;SDS011;39550;52.230;5.194;2024-01-30T12:21:33;8.52;;;5.45;;
53646;SDS011;39550;52.230;5.194;2024-01-30T12:23:59;10.60;;;5.15;;
53646;SDS011;39550;52.230;5.194;2024-01-30T12:26:25;8.88;;;5.60;;
53646;SDS011;39550;52.230;5.194;2024-01-30T12:28:53;11.55;;;5.47;;
53646;SDS011;39550;52.230;5.194;2024-01-30T12:31:25;10.50;;;5.23;;
53646;SDS011;39550;52.230;5.194;2024-01-30T12:33:51;9.43;;;4.60;;
53646;SDS011;39550;52.230;5.194;2024-01-30T12:36:17;8.80;;;4.95;;
53646;SDS011;39550;52.230;5.194;2024-01-30T12:38:42;11.63;;;4.50;;
53646;SDS011;39550;52.230;5.194;2024-01-30T12:41:08;8.88;;;4.55;;
53646;SDS011;39550;52.230;5.194;2024-01-30T12:43:33;7.70;;;4.70;;
53646;SDS011;39550;52.230;5.194;2024-01-30T12:45:59;8.48;;;4.05;;
53646;SDS011;39550;52.230;5.194;2024-01-30T12:48:26;9.20;;;4.18;;
53646;SDS011;39550;52.230;5.194;2024-01-30T12:50:53;11.18;;;4.43;;
53646;SDS011;39550;52.230;5.194;2024-01-30T12:53:19;7.80;;;4.18;;
53646;SDS011;39550;52.230;5.194;2024-01-30T12:55:44;7.10;;;4.28;;
53646;SDS011;39550;52.230;5.194;2024-01-30T12:58:09;6.45;;;3.95;;
53646;SDS011;39550;52.230;5.194;2024-01-30T13:00:35;6.40;;;4.25;;
53646;SDS011;39550;52.230;5.194;2024-01-30T13:03:00;8.02;;;4.32;;
53646;SDS011;39550;52.230;5.194;2024-01-30T13:05:26;9.18;;;3.85;;
53646;SDS011;39550;52.230;5.194;2024-01-30T13:07:52;6.97;;;4.13;;
53646;SDS011;39550;52.230;5.194;2024-01-30T13:10:18;6.10;;;3.20;;
53646;SDS011;39550;52.230;5.194;2024-01-30T13:12:44;10.27;;;4.43;;
53646;SDS011;39550;52.230;5.194;2024-01-30T13:15:09;6.68;;;3.55;;
53646;SDS011;39550;52.230;5.194;2024-01-30T13:17:36;7.50;;;3.90;;
53646;SDS011;39550;52.230;5.194;2024-01-30T13:20:01;6.18;;;3.88;;
53646;SDS011;39550;52.230;5.194;2024-01-30T13:22:28;5.97;;;3.30;;
53646;SDS011;39550;52.230;5.194;2024-01-30T13:24:53;7.07;;;3.53;;
53646;SDS011;39550;52.230;5.194;2024-01-30T13:27:20;8.38;;;3.47;;
53646;SDS011;39550;52.230;5.194;2024-01-30T13:29:46;8.38;;;3.53;;
53646;SDS011;39550;52.230;5.194;2024-01-30T13:32:11;6.85;;;3.92;;
53646;SDS011;39550;52.230;5.194;2024-01-30T13:34:36;6.22;;;3.53;;
53646;SDS011;39550;52.230;5.194;2024-01-30T13:37:01;7.07;;;3.30;;
53646;SDS011;39550;52.230;5.194;2024-01-30T13:39:27;6.95;;;3.90;;
53646;SDS011;39550;52.230;5.194;2024-01-30T13:41:54;7.28;;;3.60;;
53646;SDS011;39550;52.230;5.194;2024-01-30T13:44:19;8.57;;;3.80;;
53646;SDS011;39550;52.230;5.194;2024-01-30T13:46:45;9.63;;;3.88;;
53646;SDS011;39550;52.230;5.194;2024-01-30T13:49:11;6.38;;;3.47;;
53646;SDS011;39550;52.230;5.194;2024-01-30T13:51:36;8.13;;;3.53;;
53646;SDS011;39550;52.230;5.194;2024-01-30T13:54:02;9.52;;;3.65;;
53646;SDS011;39550;52.230;5.194;2024-01-30T13:56:27;7.20;;;3.83;;
53646;SDS011;39550;52.230;5.194;2024-01-30T13:58:52;7.07;;;4.47;;
53646;SDS011;39550;52.230;5.194;2024-01-30T14:01:18;8.57;;;4.03;;
53646;SDS011;39550;52.230;5.194;2024-01-30T14:03:44;10.85;;;3.95;;
53646;SDS011;39550;52.230;5.194;2024-01-30T14:06:11;5.45;;;3.75;;
53646;SDS011;39550;52.230;5.194;2024-01-30T14:08:37;7.97;;;3.80;;
53646;SDS011;39550;52.230;5.194;2024-01-30T14:11:02;7.25;;;3.80;;
53646;SDS011;39550;52.230;5.194;2024-01-30T14:13:28;8.30;;;3.65;;
53646;SDS011;39550;52.230;5.194;2024-01-30T14:15:53;7.90;;;3.70;;
53646;SDS011;39550;52.230;5.194;2024-01-30T14:18:19;8.30;;;3.70;;
53646;SDS011;39550;52.230;5.194;2024-01-30T14:20:45;6.85;;;3.60;;
53646;SDS011;39550;52.230;5.194;2024-01-30T14:23:10;9.25;;;3.63;;
53646;SDS011;39550;52.230;5.194;2024-01-30T14:25:37;5.15;;;3.83;;
53646;SDS011;39550;52.230;5.194;2024-01-30T14:28:02;6.05;;;3.80;;
53646;SDS011;39550;52.230;5.194;2024-01-30T14:30:28;6.10;;;3.50;;
53646;SDS011;39550;52.230;5.194;2024-01-30T14:32:53;7.07;;;3.88;;
53646;SDS011;39550;52.230;5.194;2024-01-30T14:35:19;4.97;;;3.25;;